Time;durP1;ratioP1;P1;durP2;ratioP2;P2;SDS_P1;SDS_P2;PMS_P1;PMS_P2;Temp;Humidity;BMP_temperature;BMP_pressure;BME280_temperature;BME280_humidity;BME280_pressure;Samples;Min_cycle;Max_cycle;Signal;HPM_P1;HPM_P2
2023/04/27 00:01:39;;;;;;;5.72;4.10;;;4.70;99.90;;;;;;5049939;28;20033;-70
2023/04/27 00:04:06;;;;;;;7.47;4.97;;;4.70;99.90;;;;;;5049678;28;20033;-71
2023/04/27 00:06:33;;;;;;;7.22;4.65;;;4.70;99.90;;;;;;5050847;28;20044;-71
2023/04/27 00:08:59;;;;;;;7.47;5.38;;;4.70;99.90;;;;;;5051259;28;20420;-70
2023/04/27 00:11:24;;;;;;;6.82;4.10;;;4.70;99.90;;;;;;5049817;28;20083;-70
2023/04/27 00:13:50;;;;;;;8.75;6.05;;;4.60;99.90;;;;;;5051066;28;20044;-70
2023/04/27 00:16:16;;;;;;;7.18;4.72;;;4.60;99.90;;;;;;5050743;28;20033;-71
2023/04/27 00:18:42;;;;;;;8.93;5.05;;;4.60;99.90;;;;;;5050960;28;20033;-70
2023/04/27 00:21:08;;;;;;;9.15;5.32;;;4.70;99.90;;;;;;5049664;28;20049;-71
2023/04/27 00:23:34;;;;;;;10.48;5.25;;;4.70;99.90;;;;;;5050990;28;20037;-70
2023/04/27 00:25:59;;;;;;;6.55;4.85;;;4.70;99.90;;;;;;5050893;28;20056;-71
2023/04/27 00:28:25;;;;;;;9.23;5.05;;;4.70;99.90;;;;;;5054278;28;20116;-70
2023/04/27 00:30:53;;;;;;;13.40;5.63;;;4.70;99.90;;;;;;5053414;28;20067;-70
2023/04/27 00:33:19;;;;;;;9.95;4.60;;;4.70;99.90;;;;;;5054368;28;20037;-70
2023/04/27 00:35:45;;;;;;;9.40;5.30;;;4.70;99.90;;;;;;5052495;28;20084;-70
2023/04/27 00:38:11;;;;;;;10.27;5.20;;;4.70;99.90;;;;;;5054333;28;20068;-70
2023/04/27 00:40:37;;;;;;;8.95;5.30;;;4.70;99.90;;;;;;5054445;28;20044;-70
2023/04/27 00:43:02;;;;;;;8.25;5.00;;;4.70;99.90;;;;;;5054256;28;20115;-70
2023/04/27 00:45:28;;;;;;;7.28;4.72;;;4.70;99.90;;;;;;5052542;28;20125;-70
2023/04/27 00:47:54;;;;;;;9.15;5.82;;;4.70;99.90;;;;;;5053993;28;20045;-70
2023/04/27 00:50:27;;;;;;;9.63;5.25;;;4.70;99.90;;;;;;5054353;28;20044;-71
2023/04/27 00:52:53;;;;;;;11.25;5.25;;;4.70;99.90;;;;;;5054054;28;20044;-71
2023/04/27 00:55:18;;;;;;;9.98;5.82;;;4.70;99.90;;;;;;5052902;28;20052;-71
2023/04/27 00:57:44;;;;;;;9.50;5.45;;;4.80;99.90;;;;;;5077078;22;20133;-69
2023/04/27 01:00:10;;;;;;;10.05;5.43;;;4.80;99.90;;;;;;5053941;28;20043;-69
2023/04/27 01:02:38;;;;;;;7.65;4.93;;;4.80;99.90;;;;;;5053758;28;20059;-69
2023/04/27 01:05:03;;;;;;;11.48;5.85;;;4.90;99.90;;;;;;5053723;28;20053;-69
2023/04/27 01:07:29;;;;;;;8.77;5.60;;;4.80;99.90;;;;;;5053583;28;20381;-69
2023/04/27 01:09:55;;;;;;;11.50;5.10;;;4.90;99.90;;;;;;5053804;28;20040;-69
2023/04/27 01:12:20;;;;;;;7.75;4.72;;;4.80;99.90;;;;;;5035949;28;20047;-69
2023/04/27 01:14:46;;;;;;;9.75;4.90;;;4.90;99.90;;;;;;5053551;28;20041;-69
2023/04/27 01:17:12;;;;;;;9.98;4.82;;;4.90;99.90;;;;;;5053307;28;20052;-68
2023/04/27 01:19:39;;;;;;;10.38;4.32;;;4.90;99.90;;;;;;5053695;28;20045;-69
2023/04/27 01:22:05;;;;;;;8.80;5.07;;;5.00;99.90;;;;;;5053373;28;20496;-69
2023/04/27 01:24:31;;;;;;;7.80;4.75;;;4.90;99.90;;;;;;5053430;28;20049;-69
2023/04/27 01:26:57;;;;;;;7.63;4.15;;;4.90;99.90;;;;;;5053062;28;20036;-69
2023/04/27 01:29:22;;;;;;;8.98;4.57;;;4.90;99.90;;;;;;5053333;28;20044;-69
2023/04/27 01:31:48;;;;;;;6.10;4.10;;;4.90;99.90;;;;;;5053678;28;20068;-68
2023/04/27 01:34:14;;;;;;;10.82;5.28;;;4.90;99.90;;;;;;5053369;28;20044;-69
2023/04/27 01:36:39;;;;;;;8.27;4.28;;;4.90;99.90;;;;;;5052972;28;20441;-68
2023/04/27 01:39:08;;;;;;;8.43;4.18;;;4.80;99.90;;;;;;5052061;28;20077;-69
2023/04/27 01:41:35;;;;;;;9.82;4.97;;;4.80;99.90;;;;;;5053042;28;20501;-69
2023/04/27 01:44:00;;;;;;;6.72;4.22;;;4.80;99.90;;;;;;5052888;28;20452;-69
2023/04/27 01:46:26;;;;;;;7.97;4.88;;;4.80;99.90;;;;;;5052580;28;20029;-69
2023/04/27 01:48:51;;;;;;;6.75;4.78;;;4.70;99.90;;;;;;5053136;28;20037;-69
2023/04/27 01:51:17;;;;;;;11.85;5.38;;;4.70;99.90;;;;;;5053046;28;20040;-69
2023/04/27 01:53:42;;;;;;;7.95;4.97;;;4.70;99.90;;;;;;5052946;28;20044;-69
2023/04/27 01:56:09;;;;;;;8.98;5.32;;;4.70;99.90;;;;;;5052546;28;20090;-68
2023/04/27 01:58:34;;;;;;;11.18;5.72;;;4.70;99.90;;;;;;5052593;28;20072;-69
2023/04/27 02:01:00;;;;;;;6.65;4.90;;;4.70;99.90;;;;;;5052613;28;20126;-69
2023/04/27 02:03:25;;;;;;;8.38;4.90;;;4.60;99.90;;;;;;5052476;28;20155;-69
2023/04/27 02:05:51;;;;;;;9.80;5.13;;;4.60;99.90;;;;;;5052340;28;20032;-69
2023/04/27 02:08:16;;;;;;;7.80;4.47;;;4.60;99.90;;;;;;5052423;28;20048;-69
2023/04/27 02:10:42;;;;;;;8.82;5.65;;;4.60;99.90;;;;;;5052511;28;20049;-68
2023/04/27 02:13:08;;;;;;;8.02;5.30;;;4.50;99.90;;;;;;5052422;28;20045;-69
2023/04/27 02:15:34;;;;;;;6.93;5.32;;;4.50;99.90;;;;;;5052213;28;20052;-69
2023/04/27 02:18:00;;;;;;;9.52;5.47;;;4.50;99.90;;;;;;5034216;28;20076;-69
2023/04/27 02:20:28;;;;;;;6.78;4.55;;;4.40;99.90;;;;;;5052325;28;20116;-69
2023/04/27 02:22:54;;;;;;;8.82;5.15;;;4.40;99.90;;;;;;5052400;28;20068;-69
2023/04/27 02:25:20;;;;;;;11.02;5.63;;;4.40;99.90;;;;;;5034218;28;20488;-69
2023/04/27 02:27:45;;;;;;;8.85;5.47;;;4.40;99.90;;;;;;5052014;28;20044;-68
2023/04/27 02:30:11;;;;;;;7.72;5.03;;;4.30;99.90;;;;;;5034295;28;20040;-69
2023/04/27 02:32:37;;;;;;;7.78;5.38;;;4.40;99.90;;;;;;5034271;28;20040;-69
2023/04/27 02:35:03;;;;;;;7.13;5.18;;;4.30;99.90;;;;;;5052049;28;20059;-68
2023/04/27 02:37:29;;;;;;;8.15;4.85;;;4.30;99.90;;;;;;5051897;28;20072;-69
2023/04/27 02:39:55;;;;;;;7.95;5.88;;;4.30;99.90;;;;;;5052038;28;20452;-69
2023/04/27 02:42:20;;;;;;;8.02;5.93;;;4.30;99.90;;;;;;5052066;28;20083;-69
2023/04/27 02:44:46;;;;;;;10.43;6.22;;;4.20;99.90;;;;;;5051625;28;20041;-68
2023/04/27 02:47:12;;;;;;;8.90;5.80;;;4.20;99.90;;;;;;5051892;28;20120;-69
2023/04/27 02:49:37;;;;;;;7.78;5.15;;;4.20;99.90;;;;;;5051694;28;20116;-69
2023/04/27 02:52:04;;;;;;;9.50;5.13;;;4.20;99.90;;;;;;5051936;28;20532;-68
2023/04/27 02:54:30;;;;;;;11.50;5.65;;;4.10;99.90;;;;;;5051806;28;20504;-69
2023/04/27 02:56:55;;;;;;;7.15;5.47;;;4.10;99.90;;;;;;5051361;28;20040;-69
2023/04/27 02:59:21;;;;;;;9.40;5.50;;;4.00;99.90;;;;;;5051737;28;20068;-69
2023/04/27 03:01:47;;;;;;;12.20;6.60;;;4.10;99.90;;;;;;5052059;28;20045;-69
2023/04/27 03:04:13;;;;;;;8.45;4.97;;;4.00;99.90;;;;;;5051473;28;20122;-69
2023/04/27 03:06:40;;;;;;;8.55;5.93;;;4.00;99.90;;;;;;5051391;28;20047;-68
2023/04/27 03:09:06;;;;;;;10.13;6.43;;;3.90;99.90;;;;;;5051728;28;20070;-68
2023/04/27 03:11:31;;;;;;;11.05;5.90;;;4.00;99.90;;;;;;5051576;28;20067;-68
2023/04/27 03:13:57;;;;;;;7.78;5.55;;;3.90;99.90;;;;;;5051379;28;20083;-68
2023/04/27 03:16:22;;;;;;;8.98;6.32;;;3.90;99.90;;;;;;5051181;28;20037;-69
2023/04/27 03:18:48;;;;;;;10.18;6.10;;;3.80;99.90;;;;;;5051617;28;20044;-68
2023/04/27 03:21:15;;;;;;;9.30;6.20;;;3.70;99.90;;;;;;5051420;28;20132;-69
2023/04/27 03:23:41;;;;;;;9.95;6.47;;;3.70;99.90;;;;;;5051366;28;20044;-69
2023/04/27 03:26:08;;;;;;;8.02;5.72;;;3.70;99.90;;;;;;5051172;28;20411;-68
2023/04/27 03:28:34;;;;;;;10.02;5.75;;;3.70;99.90;;;;;;5051172;28;20092;-68
2023/04/27 03:31:03;;;;;;;10.63;5.95;;;3.70;99.90;;;;;;5051405;28;20071;-68
2023/04/27 03:33:28;;;;;;;10.70;5.97;;;3.60;99.90;;;;;;5051523;28;20507;-68
2023/04/27 03:35:58;;;;;;;9.90;5.30;;;3.70;99.90;;;;;;5051274;28;20075;-68
2023/04/27 03:38:24;;;;;;;9.73;6.13;;;3.60;99.90;;;;;;5051175;28;20116;-68
2023/04/27 03:40:50;;;;;;;9.18;6.28;;;3.60;99.90;;;;;;5051269;28;20087;-69
2023/04/27 03:43:15;;;;;;;8.80;5.68;;;3.60;99.90;;;;;;5051202;28;20400;-68
2023/04/27 03:45:41;;;;;;;8.52;5.90;;;3.60;99.90;;;;;;5051293;28;20073;-68
2023/04/27 03:48:06;;;;;;;11.13;5.93;;;3.50;99.90;;;;;;5051156;28;20032;-68
2023/04/27 03:50:32;;;;;;;12.02;6.22;;;3.50;99.90;;;;;;5051162;28;20048;-68
2023/04/27 03:52:58;;;;;;;11.20;6.22;;;3.50;99.90;;;;;;5051165;28;20033;-68
2023/04/27 03:55:24;;;;;;;11.23;6.18;;;3.50;99.90;;;;;;5051055;28;20049;-68
2023/04/27 03:57:50;;;;;;;12.07;6.25;;;3.50;99.90;;;;;;5050788;28;20531;-68
2023/04/27 04:00:17;;;;;;;15.48;7.15;;;3.50;99.90;;;;;;5051352;28;20041;-68
2023/04/27 04:02:45;;;;;;;10.27;5.57;;;3.50;99.90;;;;;;5053436;28;20497;-69
2023/04/27 04:05:13;;;;;;;15.15;6.55;;;3.40;99.90;;;;;;5054751;28;20064;-68
2023/04/27 04:07:40;;;;;;;11.77;6.97;;;3.40;99.90;;;;;;5054583;28;20528;-68
2023/04/27 04:10:06;;;;;;;13.40;7.00;;;3.40;99.90;;;;;;5054693;28;20041;-68
2023/04/27 04:12:32;;;;;;;12.38;6.35;;;3.30;99.90;;;;;;5054420;28;20041;-68
2023/04/27 04:14:58;;;;;;;9.95;7.03;;;3.40;99.90;;;;;;5036786;28;20051;-69
2023/04/27 04:17:23;;;;;;;10.40;5.97;;;3.30;99.90;;;;;;5036583;28;20087;-68
2023/04/27 04:19:49;;;;;;;7.72;5.47;;;3.20;99.90;;;;;;5054796;28;20435;-68
2023/04/27 04:22:15;;;;;;;8.80;5.80;;;3.20;99.90;;;;;;5054682;28;20087;-68
2023/04/27 04:24:40;;;;;;;10.68;6.10;;;3.20;99.90;;;;;;5054275;28;20045;-68
2023/04/27 04:27:06;;;;;;;10.30;6.13;;;3.20;99.90;;;;;;5054461;28;20040;-68
2023/04/27 04:29:32;;;;;;;16.33;6.45;;;3.20;99.90;;;;;;5054642;28;20401;-68
2023/04/27 04:31:58;;;;;;;10.00;6.13;;;3.20;99.90;;;;;;5054561;28;20041;-68
2023/04/27 04:34:23;;;;;;;7.60;5.18;;;3.20;99.90;;;;;;5054427;28;20454;-68
2023/04/27 04:36:52;;;;;;;9.35;5.68;;;3.20;99.90;;;;;;5054079;28;20067;-68
2023/04/27 04:39:20;;;;;;;9.35;5.85;;;3.20;99.90;;;;;;5054234;28;20041;-68
2023/04/27 04:41:46;;;;;;;10.02;6.45;;;3.20;99.90;;;;;;5054423;28;20044;-68
2023/04/27 04:44:11;;;;;;;8.95;6.85;;;3.20;99.90;;;;;;5036386;28;20037;-68
2023/04/27 04:46:37;;;;;;;10.48;6.03;;;3.30;99.90;;;;;;5053907;28;20037;-69
2023/04/27 04:49:03;;;;;;;12.20;6.00;;;3.30;99.90;;;;;;5054065;28;20029;-69
2023/04/27 04:51:29;;;;;;;10.88;5.60;;;3.30;99.90;;;;;;5054107;28;20116;-68
2023/04/27 04:53:55;;;;;;;8.35;5.75;;;3.40;99.90;;;;;;5053861;28;20045;-68
2023/04/27 04:56:20;;;;;;;11.45;5.72;;;3.50;99.90;;;;;;5053683;28;20041;-68
2023/04/27 04:58:46;;;;;;;11.55;6.18;;;3.70;99.90;;;;;;5054109;28;20041;-68
2023/04/27 05:01:11;;;;;;;11.48;6.82;;;3.90;99.90;;;;;;5053864;28;20044;-68
2023/04/27 05:03:37;;;;;;;9.07;6.25;;;4.00;99.90;;;;;;5054150;28;20236;-69
2023/04/27 05:06:03;;;;;;;10.30;6.32;;;4.20;99.90;;;;;;5035653;28;20041;-69
2023/04/27 05:08:28;;;;;;;9.43;6.20;;;4.40;99.90;;;;;;5053565;28;20033;-68
2023/04/27 05:10:54;;;;;;;13.18;6.93;;;4.50;99.90;;;;;;5035881;28;20041;-68
2023/04/27 05:13:20;;;;;;;9.55;6.30;;;4.70;99.90;;;;;;5053352;28;20087;-68
2023/04/27 05:15:50;;;;;;;12.05;6.47;;;4.90;99.90;;;;;;5053888;28;20104;-69
2023/04/27 05:18:16;;;;;;;8.40;5.53;;;5.10;99.90;;;;;;5053372;28;20091;-68
2023/04/27 05:20:41;;;;;;;11.15;7.05;;;5.20;99.90;;;;;;5053243;28;20041;-69
2023/04/27 05:23:07;;;;;;;10.05;5.97;;;5.30;99.90;;;;;;5053271;28;20120;-68
2023/04/27 05:25:33;;;;;;;11.80;5.80;;;5.50;99.90;;;;;;5053173;28;20052;-69
2023/04/27 05:27:59;;;;;;;12.48;6.18;;;5.70;99.90;;;;;;5053262;28;20056;-69
2023/04/27 05:30:26;;;;;;;9.57;5.55;;;5.90;99.90;;;;;;5053605;28;20041;-68
2023/04/27 05:32:51;;;;;;;12.23;6.53;;;6.00;99.90;;;;;;5053174;28;20492;-69
2023/04/27 05:35:17;;;;;;;12.40;5.45;;;6.10;99.90;;;;;;5053175;28;20052;-69
2023/04/27 05:37:42;;;;;;;8.50;5.55;;;6.40;99.90;;;;;;5052886;28;20056;-69
2023/04/27 05:40:08;;;;;;;8.65;5.72;;;6.60;99.90;;;;;;5053361;28;20047;-69
2023/04/27 05:42:34;;;;;;;7.97;5.97;;;6.80;99.90;;;;;;5053217;28;20043;-69
2023/04/27 05:45:00;;;;;;;10.70;6.13;;;6.90;99.90;;;;;;5052907;28;20116;-68
2023/04/27 05:47:26;;;;;;;9.50;5.47;;;7.20;99.90;;;;;;5052841;28;20068;-69
2023/04/27 05:49:52;;;;;;;7.38;5.45;;;7.40;99.90;;;;;;5053165;28;20040;-69
2023/04/27 05:52:21;;;;;;;8.13;5.55;;;7.60;99.90;;;;;;5052749;28;20029;-69
2023/04/27 05:54:49;;;;;;;13.38;5.53;;;8.00;99.90;;;;;;5052899;28;20041;-69
2023/04/27 05:57:16;;;;;;;8.75;5.32;;;8.30;99.90;;;;;;5052540;28;20127;-69
2023/04/27 05:59:42;;;;;;;8.85;5.55;;;8.50;99.90;;;;;;5052892;28;20041;-71
2023/04/27 06:02:08;;;;;;;10.43;5.60;;;8.90;99.90;;;;;;5052687;28;20087;-69
2023/04/27 06:04:35;;;;;;;10.13;5.80;;;9.10;99.90;;;;;;5034649;28;20468;-69
2023/04/27 06:07:02;;;;;;;8.98;5.20;;;9.40;99.90;;;;;;5035091;28;20051;-69
2023/04/27 06:09:29;;;;;;;8.27;4.57;;;9.60;99.90;;;;;;5052597;28;20041;-69
2023/04/27 06:11:57;;;;;;;7.57;4.93;;;9.80;99.90;;;;;;5052552;28;20124;-69
2023/04/27 06:14:23;;;;;;;11.65;4.82;;;10.10;99.90;;;;;;5052119;28;20049;-69
2023/04/27 06:16:48;;;;;;;11.13;4.55;;;10.20;99.90;;;;;;5052119;28;20097;-69
2023/04/27 06:19:14;;;;;;;7.80;4.63;;;10.50;99.90;;;;;;5052296;28;20045;-69
2023/04/27 06:21:39;;;;;;;8.30;4.90;;;10.50;99.90;;;;;;5052521;28;20041;-69
2023/04/27 06:24:05;;;;;;;6.85;4.45;;;10.60;99.90;;;;;;5051640;28;20123;-69
2023/04/27 06:26:31;;;;;;;7.30;4.47;;;10.80;99.90;;;;;;5051781;28;20163;-69
2023/04/27 06:28:56;;;;;;;6.03;3.42;;;10.80;99.90;;;;;;5052160;28;20048;-69
2023/04/27 06:31:22;;;;;;;6.40;3.65;;;11.10;99.90;;;;;;5052109;28;20033;-69
2023/04/27 06:33:47;;;;;;;6.55;3.13;;;11.20;99.90;;;;;;5052388;28;20041;-69
2023/04/27 06:36:13;;;;;;;5.82;3.63;;;11.00;99.90;;;;;;5051896;28;20116;-69
2023/04/27 06:38:39;;;;;;;4.50;3.72;;;11.00;99.90;;;;;;5052227;28;20124;-69
2023/04/27 06:41:04;;;;;;;6.43;3.45;;;11.20;99.90;;;;;;5052133;28;20121;-69
2023/04/27 06:43:30;;;;;;;9.25;3.25;;;11.10;99.90;;;;;;5052025;28;20064;-70
2023/04/27 06:45:56;;;;;;;5.32;3.00;;;11.00;99.90;;;;;;5051663;28;20033;-67
2023/04/27 06:48:21;;;;;;;5.45;3.08;;;11.00;99.90;;;;;;5033813;28;20053;-70
2023/04/27 06:50:47;;;;;;;4.85;2.78;;;11.10;99.90;;;;;;5051791;28;20069;-67
2023/04/27 06:53:13;;;;;;;4.82;2.53;;;11.10;99.90;;;;;;5051804;28;20048;-69
2023/04/27 06:55:38;;;;;;;7.43;3.00;;;11.30;99.90;;;;;;5051825;28;20041;-67
2023/04/27 06:58:04;;;;;;;6.03;2.65;;;11.50;99.90;;;;;;5075269;22;20453;-71
2023/04/27 07:00:30;;;;;;;5.18;2.70;;;11.60;99.90;;;;;;5033795;28;20095;-69
2023/04/27 07:02:56;;;;;;;5.78;2.50;;;11.70;99.90;;;;;;5051619;28;20045;-71
2023/04/27 07:05:22;;;;;;;5.32;3.20;;;11.80;99.60;;;;;;5033678;28;20053;-70
2023/04/27 07:07:47;;;;;;;4.50;2.80;;;12.20;99.10;;;;;;5062612;28;20043;-71
2023/04/27 07:10:13;;;;;;;3.38;2.38;;;12.60;98.80;;;;;;5053565;28;20048;-70
2023/04/27 07:12:39;;;;;;;7.68;3.10;;;13.00;97.90;;;;;;5071691;28;20041;-71
2023/04/27 07:15:06;;;;;;;5.53;2.45;;;13.20;97.50;;;;;;5071422;28;20040;-71
2023/04/27 07:17:32;;;;;;;4.97;2.05;;;13.50;96.90;;;;;;5037102;28;20094;-71
2023/04/27 07:19:58;;;;;;;4.68;2.00;;;13.80;95.90;;;;;;5071552;28;20492;-71
2023/04/27 07:22:23;;;;;;;3.15;1.48;;;14.00;95.40;;;;;;5071637;28;20081;-71
2023/04/27 07:24:49;;;;;;;3.83;2.08;;;13.90;94.90;;;;;;5071434;28;20040;-71
2023/04/27 07:27:15;;;;;;;4.60;1.90;;;13.80;94.70;;;;;;5071283;28;20036;-71
2023/04/27 07:29:41;;;;;;;4.53;1.80;;;14.10;94.10;;;;;;5053771;28;20551;-70
2023/04/27 07:32:07;;;;;;;4.82;1.95;;;14.20;94.10;;;;;;5071367;28;20488;-71
2023/04/27 07:34:33;;;;;;;5.00;2.53;;;14.30;93.90;;;;;;5053305;28;20048;-71
2023/04/27 07:37:00;;;;;;;4.85;2.65;;;13.90;92.90;;;;;;5073900;28;20036;-71
2023/04/27 07:39:26;;;;;;;4.03;1.88;;;13.80;93.70;;;;;;5057523;28;20029;-71
2023/04/27 07:41:52;;;;;;;8.95;2.83;;;13.70;93.30;;;;;;5074640;28;20037;-71
2023/04/27 07:44:18;;;;;;;3.63;2.00;;;13.60;93.20;;;;;;5056879;28;20044;-71
2023/04/27 07:46:46;;;;;;;4.45;2.05;;;13.70;94.00;;;;;;5057233;28;20075;-70
2023/04/27 07:49:12;;;;;;;3.03;2.00;;;13.30;92.10;;;;;;5057457;28;20094;-71
2023/04/27 07:51:38;;;;;;;5.50;1.80;;;13.20;92.00;;;;;;5040660;28;20500;-70
2023/04/27 07:54:04;;;;;;;3.25;1.75;;;13.20;91.90;;;;;;5057452;28;20048;-71
2023/04/27 07:56:30;;;;;;;8.02;1.77;;;12.90;91.40;;;;;;5074846;28;20047;-70
2023/04/27 07:58:55;;;;;;;3.58;1.70;;;12.90;91.00;;;;;;5040462;28;20045;-70
2023/04/27 08:01:21;;;;;;;3.45;2.10;;;13.00;91.60;;;;;;5057137;28;20380;-69
2023/04/27 08:03:47;;;;;;;3.05;2.38;;;13.10;91.60;;;;;;5056960;28;20081;-70
2023/04/27 08:06:12;;;;;;;4.75;2.53;;;13.40;92.50;;;;;;5056693;28;20127;-71
2023/04/27 08:08:38;;;;;;;4.63;2.00;;;13.60;91.60;;;;;;5056954;28;20039;-70
2023/04/27 08:11:04;;;;;;;6.10;2.97;;;13.60;91.00;;;;;;5056916;28;20041;-70
2023/04/27 08:13:29;;;;;;;15.60;7.55;;;13.80;90.70;;;;;;5040206;28;20171;-71
2023/04/27 08:15:57;;;;;;;6.53;2.70;;;13.90;91.20;;;;;;5039973;28;20076;-70
2023/04/27 08:18:24;;;;;;;5.50;3.33;;;13.80;90.20;;;;;;5074799;28;20450;-70
2023/04/27 08:20:49;;;;;;;7.68;5.03;;;13.80;89.30;;;;;;5056956;28;20037;-71
2023/04/27 08:23:15;;;;;;;5.82;3.30;;;13.90;88.30;;;;;;5074646;28;20047;-70
2023/04/27 08:25:41;;;;;;;6.15;2.58;;;13.80;87.50;;;;;;5056517;28;20108;-71
2023/04/27 08:28:06;;;;;;;7.78;4.00;;;13.90;86.90;;;;;;5056431;28;20106;-71
2023/04/27 08:30:32;;;;;;;5.43;2.63;;;13.70;86.30;;;;;;5056504;28;20044;-71
2023/04/27 08:32:57;;;;;;;6.90;2.50;;;13.70;85.30;;;;;;5056721;28;20502;-70
2023/04/27 08:35:23;;;;;;;4.07;1.92;;;13.70;84.30;;;;;;5056428;28;20033;-71
2023/04/27 08:37:48;;;;;;;4.53;1.80;;;13.70;84.60;;;;;;5056139;28;20037;-71
2023/04/27 08:40:14;;;;;;;5.13;2.00;;;14.00;84.20;;;;;;5056602;28;20048;-71
2023/04/27 08:42:52;;;;;;;2.72;2.08;;;14.10;81.90;;;;;;5074138;28;20063;-71
2023/04/27 08:45:18;;;;;;;4.57;1.98;;;14.40;81.90;;;;;;5056161;28;20055;-70
2023/04/27 08:47:45;;;;;;;4.53;2.28;;;14.50;81.50;;;;;;5073601;28;20039;-71
2023/04/27 08:50:11;;;;;;;3.88;2.10;;;14.60;82.00;;;;;;5074147;28;20040;-70
2023/04/27 08:52:37;;;;;;;4.43;2.15;;;14.50;81.10;;;;;;5074140;28;20032;-71
2023/04/27 08:55:03;;;;;;;5.65;2.92;;;14.60;80.40;;;;;;5073958;28;20047;-71
2023/04/27 08:57:30;;;;;;;3.60;2.75;;;14.30;79.90;;;;;;5055631;28;20074;-70
2023/04/27 09:00:11;;;;;;;5.57;2.97;;;14.80;81.30;;;;;;5073997;28;20111;-70
2023/04/27 09:02:36;;;;;;;4.38;2.72;;;14.80;79.30;;;;;;5056005;28;20072;-71
2023/04/27 09:05:02;;;;;;;3.92;2.63;;;15.20;78.00;;;;;;5073745;28;20072;-70
2023/04/27 09:07:28;;;;;;;6.85;3.00;;;15.40;77.60;;;;;;5073617;28;20043;-71
2023/04/27 09:10:04;;;;;;;4.03;2.35;;;15.20;74.30;;;;;;5056034;28;20040;-70
2023/04/27 09:12:29;;;;;;;4.45;2.60;;;14.80;71.50;;;;;;5055960;28;20443;-71
2023/04/27 09:15:02;;;;;;;7.75;2.85;;;14.80;73.60;;;;;;5055565;28;20041;-71
2023/04/27 09:17:29;;;;;;;4.70;3.05;;;14.70;73.50;;;;;;5073606;28;20098;-71
2023/04/27 09:20:07;;;;;;;7.03;3.10;;;14.20;73.30;;;;;;5073619;28;20040;-70
2023/04/27 09:22:46;;;;;;;7.63;4.03;;;13.80;72.70;;;;;;5055526;28;20048;-72
2023/04/27 09:25:30;;;;;;;9.02;4.05;;;13.70;76.20;;;;;;5055360;28;20040;-72
2023/04/27 09:27:57;;;;;;;5.47;3.40;;;13.50;74.60;;;;;;5055197;28;20045;-71
2023/04/27 09:30:23;;;;;;;6.78;3.13;;;13.40;76.30;;;;;;5055442;28;20522;-72
2023/04/27 09:32:57;;;;;;;7.38;5.70;;;13.60;73.90;;;;;;5055193;28;20123;-71
2023/04/27 09:35:31;;;;;;;4.50;3.03;;;13.80;77.30;;;;;;5055159;28;20040;-71
2023/04/27 09:37:58;;;;;;;5.05;3.30;;;13.80;72.60;;;;;;5055098;28;20050;-70
2023/04/27 09:40:30;;;;;;;6.15;3.35;;;14.00;71.60;;;;;;5055193;28;20076;-70
2023/04/27 09:43:02;;;;;;;7.35;3.70;;;14.40;71.40;;;;;;5072995;28;20040;-71
2023/04/27 09:45:28;;;;;;;4.93;3.15;;;14.50;71.50;;;;;;5054971;28;20385;-71
2023/04/27 09:47:54;;;;;;;6.82;3.75;;;14.20;71.90;;;;;;5055110;28;20090;-71
2023/04/27 09:50:20;;;;;;;6.75;4.00;;;14.10;71.70;;;;;;5073148;28;20036;-71
2023/04/27 09:52:46;;;;;;;6.10;3.72;;;14.00;70.70;;;;;;5073030;28;20100;-72
2023/04/27 09:55:18;;;;;;;7.90;4.13;;;13.90;71.90;;;;;;5054782;28;20040;-71
2023/04/27 09:58:16;;;;;;;9.20;5.20;;;14.00;72.10;;;;;;5054629;28;20460;-70
2023/04/27 10:01:04;;;;;;;7.78;4.28;;;14.10;73.40;;;;;;5072004;28;20063;-72
2023/04/27 10:03:47;;;;;;;7.45;3.85;;;14.00;74.10;;;;;;5038537;28;20079;-71
2023/04/27 10:06:35;;;;;;;5.97;3.88;;;13.90;72.00;;;;;;5072383;28;20135;-72
2023/04/27 10:09:05;;;;;;;10.57;3.97;;;13.90;68.30;;;;;;5055022;28;20082;-72
2023/04/27 10:11:46;;;;;;;8.43;4.63;;;13.90;70.00;;;;;;5072693;28;20075;-71
2023/04/27 10:14:17;;;;;;;5.68;3.95;;;13.80;72.70;;;;;;5054577;28;20510;-70
2023/04/27 10:16:53;;;;;;;9.75;4.35;;;13.80;70.00;;;;;;5072068;28;20037;-70
2023/04/27 10:19:23;;;;;;;20.55;9.30;;;13.90;69.90;;;;;;5054470;28;20048;-70
2023/04/27 10:22:02;;;;;;;10.93;5.85;;;14.10;71.90;;;;;;5150828;27;20190;-70
2023/04/27 10:24:35;;;;;;;6.53;3.70;;;14.10;73.00;;;;;;5150728;27;20039;-70
2023/04/27 10:27:05;;;;;;;7.97;4.00;;;14.20;72.30;;;;;;5155228;27;20038;-70
2023/04/27 10:29:38;;;;;;;6.53;4.20;;;14.20;73.40;;;;;;5153077;27;20090;-69
2023/04/27 10:32:10;;;;;;;6.40;3.67;;;14.20;72.60;;;;;;5152737;27;20034;-71
2023/04/27 10:34:36;;;;;;;4.10;3.40;;;14.00;71.70;;;;;;5171287;27;20038;-71
2023/04/27 10:37:10;;;;;;;4.90;3.95;;;13.80;69.40;;;;;;5152417;27;20047;-71
2023/04/27 10:39:40;;;;;;;5.60;2.97;;;13.50;70.10;;;;;;5171033;27;20030;-71
2023/04/27 10:42:07;;;;;;;8.18;3.97;;;13.50;71.40;;;;;;5171345;27;20036;-71
2023/04/27 10:44:34;;;;;;;4.93;3.05;;;13.50;74.60;;;;;;5171357;27;20443;-71
2023/04/27 10:47:22;;;;;;;5.07;2.90;;;13.30;72.50;;;;;;5152424;27;20047;-71
2023/04/27 10:49:52;;;;;;;5.43;3.00;;;13.20;72.30;;;;;;5152018;27;20200;-73
2023/04/27 10:52:17;;;;;;;6.20;3.03;;;13.30;74.20;;;;;;5134983;27;20044;-73
2023/04/27 10:54:46;;;;;;;8.60;3.72;;;13.20;72.40;;;;;;5151671;27;20521;-72
2023/04/27 10:57:12;;;;;;;7.68;3.78;;;13.20;71.40;;;;;;5170776;27;20077;-73
2023/04/27 10:59:49;;;;;;;8.23;4.07;;;13.20;70.80;;;;;;5152129;27;20073;-73
2023/04/27 11:02:15;;;;;;;7.32;4.15;;;13.10;69.80;;;;;;5152325;27;20038;-74
2023/04/27 11:04:41;;;;;;;7.72;4.25;;;13.10;69.60;;;;;;5170563;27;20487;-74
2023/04/27 11:07:08;;;;;;;4.45;3.15;;;13.00;68.50;;;;;;5170518;27;20105;-74
2023/04/27 11:09:38;;;;;;;4.93;3.58;;;13.10;69.10;;;;;;5170864;27;20034;-74
2023/04/27 11:12:08;;;;;;;5.70;3.45;;;13.00;69.90;;;;;;5170841;27;20054;-74
2023/04/27 11:14:36;;;;;;;7.38;3.90;;;13.00;69.50;;;;;;5151922;27;20041;-74
2023/04/27 11:17:05;;;;;;;6.50;4.10;;;13.10;67.50;;;;;;5170252;27;20435;-74
2023/04/27 11:19:31;;;;;;;6.80;3.72;;;13.20;68.50;;;;;;5151951;27;20035;-73
2023/04/27 11:22:05;;;;;;;6.60;3.38;;;13.20;68.20;;;;;;5151791;27;20095;-74
2023/04/27 11:24:34;;;;;;;7.10;4.25;;;13.40;67.70;;;;;;5151679;27;20491;-74
2023/04/27 11:27:00;;;;;;;5.78;3.28;;;13.30;67.00;;;;;;5151752;27;20482;-74
2023/04/27 11:29:36;;;;;;;9.05;4.65;;;13.40;67.60;;;;;;5151796;27;20069;-74
2023/04/27 11:32:03;;;;;;;6.95;3.85;;;13.30;68.80;;;;;;5145177;27;20393;-74
2023/04/27 11:34:33;;;;;;;5.57;3.97;;;13.30;67.60;;;;;;5156460;27;20126;-74
2023/04/27 11:37:00;;;;;;;7.07;3.90;;;13.40;67.00;;;;;;5137679;27;20046;-73
2023/04/27 11:39:27;;;;;;;6.72;4.10;;;13.50;67.00;;;;;;5137689;27;20038;-74
2023/04/27 11:41:53;;;;;;;6.25;4.18;;;13.60;67.20;;;;;;5137613;27;20039;-74
2023/04/27 11:44:24;;;;;;;8.35;4.38;;;13.60;66.60;;;;;;5137703;27;20465;-73
2023/04/27 11:46:50;;;;;;;8.35;4.35;;;13.60;69.20;;;;;;5120442;27;20035;-73
2023/04/27 11:49:15;;;;;;;4.88;3.72;;;13.60;67.50;;;;;;5156020;27;20567;-73
2023/04/27 11:51:43;;;;;;;6.18;4.25;;;13.70;66.70;;;;;;5131013;27;20048;-73
2023/04/27 11:54:09;;;;;;;9.43;4.00;;;13.70;67.10;;;;;;5127147;27;20049;-73
2023/04/27 11:56:40;;;;;;;9.93;5.18;;;13.80;67.20;;;;;;5130333;27;20125;-73
2023/04/27 11:59:16;;;;;;;6.03;4.40;;;13.80;65.00;;;;;;5144474;27;20049;-73
2023/04/27 12:01:42;;;;;;;8.75;4.47;;;13.60;63.70;;;;;;5141575;27;20681;-73
2023/04/27 12:04:08;;;;;;;5.13;3.53;;;13.60;62.60;;;;;;5143847;27;20043;-73
2023/04/27 12:06:33;;;;;;;7.25;3.95;;;13.70;62.80;;;;;;5121415;27;20035;-73
2023/04/27 12:08:59;;;;;;;6.43;4.10;;;13.60;65.90;;;;;;5141905;27;20035;-73
2023/04/27 12:11:27;;;;;;;7.13;3.63;;;13.60;69.00;;;;;;5133230;27;20121;-73
2023/04/27 12:13:54;;;;;;;9.77;4.53;;;13.70;66.80;;;;;;5141429;27;20042;-73
2023/04/27 12:16:21;;;;;;;8.95;4.35;;;13.60;69.10;;;;;;5125466;27;20113;-73
2023/04/27 12:18:50;;;;;;;8.40;4.20;;;13.50;68.90;;;;;;5140667;27;20039;-73
2023/04/27 12:21:16;;;;;;;6.10;3.83;;;13.40;68.90;;;;;;5123907;27;20122;-74
2023/04/27 12:23:41;;;;;;;6.43;3.92;;;13.30;69.30;;;;;;5126354;27;20118;-73
2023/04/27 12:26:07;;;;;;;9.02;4.07;;;13.30;68.10;;;;;;5131248;27;20042;-73
2023/04/27 12:28:33;;;;;;;7.38;4.30;;;13.30;67.40;;;;;;5121205;27;20039;-73
2023/04/27 12:31:02;;;;;;;8.07;4.03;;;13.30;69.00;;;;;;5109467;27;20081;-74
2023/04/27 12:33:28;;;;;;;11.93;4.80;;;13.30;69.60;;;;;;5120424;27;20620;-73
2023/04/27 12:35:53;;;;;;;5.75;3.95;;;13.10;67.90;;;;;;5143898;27;20122;-73
2023/04/27 12:38:19;;;;;;;5.75;3.85;;;12.90;67.40;;;;;;5122024;27;20509;-74
2023/04/27 12:40:45;;;;;;;5.95;3.90;;;13.00;68.40;;;;;;5128063;27;20057;-73
2023/04/27 12:43:11;;;;;;;9.82;3.80;;;13.00;69.10;;;;;;5119428;27;20038;-73
2023/04/27 12:45:37;;;;;;;8.80;4.80;;;12.80;69.20;;;;;;5127184;27;20043;-74
2023/04/27 12:48:03;;;;;;;7.28;4.38;;;12.50;71.00;;;;;;5117380;27;20486;-73
2023/04/27 12:50:30;;;;;;;7.03;3.88;;;12.40;76.30;;;;;;5127128;27;20042;-73